createdAt,value
2018-09-18T00:01:36.699Z,99.90
2018-09-18T00:04:04.842Z,99.90
2018-09-18T00:06:32.982Z,99.90
2018-09-18T00:09:01.138Z,99.90
2018-09-18T00:11:29.262Z,99.90
2018-09-18T00:13:57.362Z,99.90
2018-09-18T00:16:25.462Z,99.90
2018-09-18T00:18:53.587Z,99.90
2018-09-18T00:21:21.765Z,99.90
2018-09-18T00:23:49.863Z,99.90
2018-09-18T00:26:17.965Z,99.90
2018-09-18T00:28:46.114Z,99.90
2018-09-18T00:31:14.217Z,99.90
2018-09-18T00:33:42.376Z,99.90
2018-09-18T00:36:10.628Z,99.90
2018-09-18T00:38:38.734Z,99.90
2018-09-18T00:41:06.837Z,99.90
2018-09-18T00:43:34.975Z,99.90
2018-09-18T00:46:03.097Z,99.90
2018-09-18T00:48:31.229Z,99.90
2018-09-18T00:50:59.337Z,99.90
2018-09-18T00:53:27.455Z,99.90
2018-09-18T00:55:55.640Z,99.90
2018-09-18T00:58:23.858Z,99.90
2018-09-18T01:00:51.970Z,99.90
2018-09-18T01:03:20.105Z,99.90
2018-09-18T01:05:48.274Z,99.90
2018-09-18T01:08:16.389Z,99.90
2018-09-18T01:10:44.666Z,99.90
2018-09-18T01:13:12.765Z,99.90
2018-09-18T01:15:40.922Z,99.90
2018-09-18T01:18:09.054Z,99.90
2018-09-18T01:20:37.167Z,99.90
2018-09-18T01:23:05.266Z,99.90
2018-09-18T01:25:33.382Z,99.90
2018-09-18T01:28:01.486Z,99.90
2018-09-18T01:30:29.639Z,99.90
2018-09-18T01:32:57.746Z,99.90
2018-09-18T01:35:25.881Z,99.90
2018-09-18T01:37:53.986Z,99.90
2018-09-18T01:40:22.117Z,99.90
2018-09-18T01:42:50.311Z,99.90
2018-09-18T01:45:18.410Z,99.90
2018-09-18T01:47:46.517Z,99.90
2018-09-18T01:50:14.642Z,99.90
2018-09-18T01:52:42.746Z,99.90
2018-09-18T01:55:10.846Z,99.90
2018-09-18T01:57:39.006Z,99.90
2018-09-18T02:00:07.202Z,99.90
2018-09-18T02:02:35.339Z,99.90
2018-09-18T02:05:03.473Z,99.90
2018-09-18T02:07:31.630Z,99.90
2018-09-18T02:09:59.822Z,99.90
2018-09-18T02:12:27.947Z,99.90
2018-09-18T02:14:56.100Z,99.90
2018-09-18T02:17:24.237Z,99.90
2018-09-18T02:19:52.377Z,99.90
2018-09-18T02:22:20.558Z,99.90
2018-09-18T02:24:48.739Z,99.90
2018-09-18T02:27:16.902Z,99.90
2018-09-18T02:29:45.052Z,99.90
2018-09-18T02:32:13.198Z,99.90
2018-09-18T02:34:41.346Z,99.90
2018-09-18T02:37:09.496Z,99.90
2018-09-18T02:39:37.658Z,99.90
2018-09-18T02:42:05.805Z,99.90
2018-09-18T02:44:33.946Z,99.90
2018-09-18T02:47:02.125Z,99.90
2018-09-18T02:49:30.299Z,99.90
2018-09-18T02:51:58.565Z,99.90
2018-09-18T02:54:26.701Z,99.90
2018-09-18T02:56:54.825Z,99.90
2018-09-18T02:59:23.001Z,99.90
2018-09-18T03:01:51.153Z,99.90
2018-09-18T03:04:19.294Z,99.90
2018-09-18T03:06:47.446Z,99.90
2018-09-18T03:09:15.613Z,99.90
2018-09-18T03:11:43.767Z,99.90
2018-09-18T03:14:11.921Z,99.90
2018-09-18T03:16:40.051Z,99.90
2018-09-18T03:19:08.198Z,99.90
2018-09-18T03:21:36.370Z,99.90
2018-09-18T03:24:04.746Z,99.90
2018-09-18T03:26:32.882Z,99.90
2018-09-18T03:29:01.029Z,99.90
2018-09-18T03:31:29.166Z,99.90
2018-09-18T03:33:57.351Z,99.90
2018-09-18T03:36:25.490Z,99.90
2018-09-18T03:38:53.736Z,99.90
2018-09-18T03:41:21.870Z,99.90
2018-09-18T03:43:50.009Z,99.90
2018-09-18T03:46:18.148Z,99.90
2018-09-18T03:48:46.342Z,99.90
2018-09-18T03:51:14.530Z,99.90
2018-09-18T03:53:42.711Z,99.90
2018-09-18T03:56:10.850Z,99.90
2018-09-18T03:58:38.993Z,99.90
2018-09-18T04:01:07.540Z,99.90
2018-09-18T04:03:35.681Z,99.90
2018-09-18T04:06:03.842Z,99.90
2018-09-18T04:08:31.990Z,99.90
2018-09-18T04:11:00.234Z,99.90
2018-09-18T04:13:28.375Z,99.90
2018-09-18T04:15:56.542Z,99.90
2018-09-18T04:18:25.981Z,99.90
2018-09-18T04:20:54.153Z,99.90
2018-09-18T04:23:22.459Z,99.90
2018-09-18T04:25:50.605Z,99.90
2018-09-18T04:28:18.744Z,99.90
2018-09-18T04:30:46.940Z,99.90
2018-09-18T04:33:15.099Z,99.90
2018-09-18T04:35:43.259Z,99.90
2018-09-18T04:38:11.385Z,99.90
2018-09-18T04:40:39.538Z,99.90
2018-09-18T04:43:07.702Z,99.90
2018-09-18T04:45:35.886Z,99.90
2018-09-18T04:48:04.049Z,99.90
2018-09-18T04:50:32.217Z,99.90
2018-09-18T04:53:00.354Z,99.90
2018-09-18T04:55:28.505Z,99.90
2018-09-18T04:57:56.707Z,99.90
2018-09-18T05:00:24.834Z,99.90
2018-09-18T05:02:52.951Z,99.90
2018-09-18T05:05:21.062Z,99.90
2018-09-18T05:07:49.170Z,99.90
2018-09-18T05:10:17.302Z,99.90
2018-09-18T05:12:45.418Z,99.90
2018-09-18T05:15:13.518Z,99.90
2018-09-18T05:17:41.638Z,99.90
2018-09-18T05:20:09.759Z,99.90
2018-09-18T05:22:37.885Z,99.90
2018-09-18T05:25:06.282Z,99.90
2018-09-18T05:27:34.392Z,99.90
2018-09-18T05:30:02.494Z,99.90
2018-09-18T05:32:30.610Z,99.90
2018-09-18T05:34:58.718Z,99.90
2018-09-18T05:37:26.841Z,99.90
2018-09-18T05:39:54.950Z,99.90
2018-09-18T05:42:23.062Z,99.90
2018-09-18T05:44:51.190Z,99.90
2018-09-18T05:47:19.350Z,99.90
2018-09-18T05:49:47.453Z,99.90
2018-09-18T05:52:15.579Z,99.90
2018-09-18T05:54:43.677Z,99.90
2018-09-18T05:57:11.940Z,99.90
2018-09-18T05:59:40.077Z,99.90
2018-09-18T06:02:08.244Z,99.90
2018-09-18T06:04:36.385Z,99.90
2018-09-18T06:07:04.530Z,99.90
2018-09-18T06:09:32.784Z,99.90
2018-09-18T06:12:00.959Z,99.90
2018-09-18T06:14:29.119Z,99.90
2018-09-18T06:16:57.249Z,99.90
2018-09-18T06:19:25.407Z,99.90
2018-09-18T06:21:53.555Z,99.90
2018-09-18T06:24:21.709Z,99.90
2018-09-18T06:26:49.862Z,99.90
2018-09-18T06:29:18.068Z,99.90
2018-09-18T06:31:46.190Z,99.90
2018-09-18T06:34:14.341Z,99.90
2018-09-18T06:36:42.498Z,99.90
2018-09-18T06:39:11.631Z,99.90
2018-09-18T06:41:40.062Z,99.90
2018-09-18T06:44:08.242Z,99.90
2018-09-18T06:46:36.407Z,99.90
2018-09-18T06:49:04.571Z,99.90
2018-09-18T06:51:32.709Z,99.90
2018-09-18T06:54:00.931Z,99.90
2018-09-18T06:56:29.094Z,99.90
2018-09-18T06:58:57.258Z,99.90
2018-09-18T07:01:25.402Z,99.90
2018-09-18T07:03:53.614Z,99.90
2018-09-18T07:06:28.554Z,99.90
2018-09-18T07:08:56.727Z,99.90
2018-09-18T07:11:24.899Z,99.90
2018-09-18T07:13:53.039Z,99.90
2018-09-18T07:16:21.182Z,99.90
2018-09-18T07:18:49.356Z,99.90
2018-09-18T07:21:17.507Z,99.90
2018-09-18T07:23:45.638Z,99.90
2018-09-18T07:26:13.790Z,99.90
2018-09-18T07:28:41.941Z,99.90
2018-09-18T07:31:10.090Z,99.90
2018-09-18T07:33:38.274Z,99.90
2018-09-18T07:36:06.095Z,99.90
2018-09-18T07:38:34.234Z,99.90
2018-09-18T07:41:02.443Z,99.90
2018-09-18T07:43:30.543Z,99.90
2018-09-18T07:45:58.741Z,99.90
2018-09-18T07:48:31.142Z,99.90
2018-09-18T07:50:59.278Z,99.90
2018-09-18T07:53:27.442Z,99.90
2018-09-18T07:55:55.606Z,99.90
2018-09-18T07:58:23.763Z,99.90
2018-09-18T08:00:51.882Z,99.90
2018-09-18T08:03:20.056Z,99.90
2018-09-18T08:05:48.189Z,99.90
2018-09-18T08:08:16.315Z,99.90
2018-09-18T08:10:44.456Z,99.90
2018-09-18T08:13:12.578Z,99.90
2018-09-18T08:15:40.800Z,99.90
2018-09-18T08:18:08.872Z,99.90
2018-09-18T08:20:37.014Z,99.90
2018-09-18T08:23:05.143Z,99.90
2018-09-18T08:25:33.362Z,99.90
2018-09-18T08:28:01.431Z,99.90
2018-09-18T08:30:29.543Z,99.90
2018-09-18T08:32:57.680Z,99.90
2018-09-18T08:35:25.842Z,99.90
2018-09-18T08:37:54.070Z,99.90
2018-09-18T08:40:22.290Z,99.90
2018-09-18T08:42:50.393Z,99.90
2018-09-18T08:45:18.492Z,99.90
2018-09-18T08:47:46.601Z,99.90
2018-09-18T08:50:14.705Z,99.90
2018-09-18T08:52:42.838Z,99.90
2018-09-18T08:55:10.970Z,99.90
2018-09-18T08:57:39.094Z,99.90
2018-09-18T09:00:07.326Z,99.90
2018-09-18T09:02:35.486Z,99.90
2018-09-18T09:05:03.656Z,99.90
2018-09-18T09:07:31.854Z,99.90
2018-09-18T09:09:59.909Z,99.90
2018-09-18T09:12:28.004Z,99.90
2018-09-18T09:14:56.160Z,99.90
2018-09-18T09:17:24.275Z,99.90
2018-09-18T09:19:52.411Z,99.30
2018-09-18T09:22:20.567Z,99.30
2018-09-18T09:24:48.634Z,99.30
2018-09-18T09:27:16.758Z,99.20
2018-09-18T09:29:44.976Z,99.30
2018-09-18T09:32:13.014Z,99.50
2018-09-18T09:34:41.152Z,99.70
2018-09-18T09:37:09.302Z,99.40
2018-09-18T09:39:37.362Z,99.60
2018-09-18T09:42:05.493Z,99.80
2018-09-18T09:44:33.650Z,99.90
2018-09-18T09:47:01.766Z,99.70
2018-09-18T09:49:29.920Z,99.90
2018-09-18T09:51:58.029Z,99.80
2018-09-18T09:54:26.166Z,99.90
2018-09-18T09:56:54.336Z,99.90
2018-09-18T09:59:22.426Z,99.90
2018-09-18T10:01:50.981Z,99.90
2018-09-18T10:04:19.166Z,99.90
2018-09-18T10:06:47.323Z,99.90
2018-09-18T10:09:15.470Z,99.90
2018-09-18T10:11:44.325Z,99.90
2018-09-18T10:14:12.510Z,99.90
2018-09-18T10:16:40.693Z,99.90
2018-09-18T10:19:09.014Z,99.80
2018-09-18T10:21:37.221Z,99.90
2018-09-18T10:24:05.371Z,99.90
2018-09-18T10:26:33.524Z,99.90
2018-09-18T10:29:01.700Z,99.50
2018-09-18T10:31:29.864Z,99.60
2018-09-18T10:33:58.001Z,99.90
2018-09-18T10:36:26.134Z,99.90
2018-09-18T10:38:54.322Z,99.90
2018-09-18T10:41:22.563Z,99.40
2018-09-18T10:43:50.620Z,99.90
2018-09-18T10:46:18.902Z,99.90
2018-09-18T10:48:50.040Z,99.90
2018-09-18T10:51:18.866Z,99.80
2018-09-18T10:53:47.006Z,99.90
2018-09-18T10:56:15.254Z,99.90
2018-09-18T10:58:43.422Z,99.90
2018-09-18T11:01:11.561Z,99.90
2018-09-18T11:03:39.961Z,99.90
2018-09-18T11:06:08.396Z,99.60
2018-09-18T11:08:36.772Z,99.90
2018-09-18T11:11:05.516Z,99.60
2018-09-18T11:13:33.750Z,99.90
2018-09-18T11:16:02.062Z,99.90
2018-09-18T11:18:30.184Z,99.90
2018-09-18T11:20:58.411Z,99.90
2018-09-18T11:23:26.579Z,99.90
2018-09-18T11:25:54.726Z,99.90
2018-09-18T11:28:22.863Z,99.90
2018-09-18T11:30:51.201Z,99.90
2018-09-18T11:33:19.400Z,99.90
2018-09-18T11:35:47.518Z,99.90
2018-09-18T11:38:15.873Z,99.90
2018-09-18T11:40:43.964Z,99.90
2018-09-18T11:43:12.090Z,99.90
2018-09-18T11:45:40.263Z,99.90
2018-09-18T11:48:08.333Z,99.90
2018-09-18T11:50:36.430Z,99.90
2018-09-18T11:53:04.555Z,99.20
2018-09-18T11:55:32.687Z,99.50
2018-09-18T11:58:00.898Z,99.40
2018-09-18T12:00:29.016Z,99.60
2018-09-18T12:02:57.151Z,99.30
2018-09-18T12:05:25.254Z,99.10
2018-09-18T12:07:53.366Z,99.00
2018-09-18T12:10:21.526Z,99.00
2018-09-18T12:12:49.710Z,99.90
2018-09-18T12:15:17.833Z,99.60
2018-09-18T12:17:46.366Z,98.90
2018-09-18T12:20:14.473Z,99.10
2018-09-18T12:22:42.910Z,98.60
2018-09-18T12:25:10.983Z,98.50
2018-09-18T12:27:39.130Z,97.70
2018-09-18T12:30:07.679Z,97.30
2018-09-18T12:32:35.983Z,95.80
2018-09-18T12:35:04.333Z,95.20
2018-09-18T12:37:32.495Z,95.50
2018-09-18T12:40:00.618Z,94.90
2018-09-18T12:42:28.786Z,94.90
2018-09-18T12:44:56.850Z,93.20
2018-09-18T12:47:24.973Z,93.20
2018-09-18T12:49:53.501Z,93.30
2018-09-18T12:52:21.445Z,93.50
2018-09-18T12:54:49.558Z,93.30
2018-09-18T12:57:17.920Z,92.90
2018-09-18T12:59:45.890Z,92.60
2018-09-18T13:02:14.051Z,91.70
2018-09-18T13:04:42.262Z,91.80
2018-09-18T13:07:10.418Z,91.30
2018-09-18T13:09:38.584Z,90.50
2018-09-18T13:12:06.730Z,91.20
2018-09-18T13:14:34.873Z,91.10
2018-09-18T13:17:03.048Z,91.50
2018-09-18T13:19:31.166Z,90.90
2018-09-18T13:21:59.334Z,91.20
2018-09-18T13:24:27.463Z,91.30
2018-09-18T13:26:55.626Z,91.30
2018-09-18T13:29:23.819Z,90.90
2018-09-18T13:31:51.959Z,90.70
2018-09-18T13:34:20.202Z,91.00
2018-09-18T13:36:48.371Z,90.70
2018-09-18T13:39:16.596Z,90.60
2018-09-18T13:41:44.738Z,90.70
2018-09-18T13:44:12.905Z,90.50
2018-09-18T13:46:41.058Z,90.60
2018-09-18T13:49:09.275Z,90.00
2018-09-18T13:51:37.398Z,90.10
2018-09-18T13:54:05.557Z,89.40
2018-09-18T13:56:33.726Z,89.70
2018-09-18T13:59:01.870Z,86.50
2018-09-18T14:01:30.098Z,88.80
2018-09-18T14:03:58.243Z,89.30
2018-09-18T14:06:26.402Z,89.50
2018-09-18T14:08:54.561Z,89.30
2018-09-18T14:11:22.727Z,89.60
2018-09-18T14:13:50.984Z,90.40
2018-09-18T14:16:19.118Z,90.40
2018-09-18T14:18:47.380Z,90.40
2018-09-18T14:21:15.523Z,91.60
2018-09-18T14:23:43.664Z,91.80
2018-09-18T14:26:12.578Z,91.90
2018-09-18T14:28:40.703Z,91.90
2018-09-18T14:31:08.841Z,91.70
2018-09-18T14:33:36.990Z,91.30
2018-09-18T14:36:05.162Z,91.60
2018-09-18T14:38:33.346Z,91.60
2018-09-18T14:41:01.552Z,91.10
2018-09-18T14:43:29.694Z,91.30
2018-09-18T14:45:57.859Z,91.50
2018-09-18T14:48:25.995Z,91.90
2018-09-18T14:50:54.143Z,92.00
2018-09-18T14:53:22.306Z,92.10
2018-09-18T14:55:50.446Z,91.40
2018-09-18T14:58:18.625Z,90.60
2018-09-18T15:00:46.778Z,91.10
2018-09-18T15:03:14.927Z,90.60
2018-09-18T15:05:43.066Z,90.50
2018-09-18T15:08:11.304Z,91.00
2018-09-18T15:10:39.532Z,90.60
2018-09-18T15:13:07.678Z,90.90
2018-09-18T15:15:35.849Z,90.30
2018-09-18T15:18:04.479Z,90.30
2018-09-18T15:20:32.615Z,90.60
2018-09-18T15:23:00.788Z,90.80
2018-09-18T15:25:28.942Z,90.50
2018-09-18T15:27:57.120Z,90.60
2018-09-18T15:30:25.254Z,90.40
2018-09-18T15:32:53.406Z,90.80
2018-09-18T15:35:21.571Z,91.00
2018-09-18T15:37:49.744Z,91.10
2018-09-18T15:40:17.883Z,91.10
2018-09-18T15:42:46.027Z,91.40
2018-09-18T15:45:14.190Z,91.60
2018-09-18T15:47:42.322Z,91.70
2018-09-18T15:50:10.469Z,92.10
2018-09-18T15:52:38.612Z,92.30
2018-09-18T15:55:06.810Z,92.00
2018-09-18T15:57:34.958Z,92.10
2018-09-18T16:00:03.118Z,92.40
2018-09-18T16:02:31.266Z,92.40
2018-09-18T16:04:59.442Z,92.50
2018-09-18T16:07:27.583Z,92.30
2018-09-18T16:09:55.776Z,92.40
2018-09-18T16:12:23.902Z,92.40
2018-09-18T16:14:52.086Z,92.50
2018-09-18T16:17:20.212Z,92.60
2018-09-18T16:19:48.364Z,92.50
2018-09-18T16:22:16.578Z,92.40
2018-09-18T16:24:44.701Z,92.50
2018-09-18T16:27:12.893Z,92.60
2018-09-18T16:29:41.017Z,92.40
2018-09-18T16:32:09.213Z,92.30
2018-09-18T16:34:37.358Z,92.10
2018-09-18T16:37:05.514Z,92.00
2018-09-18T16:39:33.678Z,92.10
2018-09-18T16:42:01.838Z,92.30
2018-09-18T16:44:29.998Z,92.20
2018-09-18T16:46:58.203Z,92.50
2018-09-18T16:49:26.294Z,92.90
2018-09-18T16:51:54.437Z,92.70
2018-09-18T16:57:36.021Z,92.60
2018-09-18T17:00:04.195Z,92.20
2018-09-18T17:02:32.331Z,92.50
2018-09-18T17:05:00.436Z,92.50
2018-09-18T17:07:28.550Z,92.80
2018-09-18T17:09:56.642Z,92.60
2018-09-18T17:12:24.777Z,92.40
2018-09-18T17:14:52.894Z,92.70
2018-09-18T17:17:21.025Z,93.20
2018-09-18T17:19:49.150Z,92.90
2018-09-18T17:22:17.290Z,93.10
2018-09-18T17:24:45.393Z,93.20
2018-09-18T17:27:13.571Z,93.40
2018-09-18T17:29:41.674Z,93.50
2018-09-18T17:32:09.787Z,93.50
2018-09-18T17:34:37.919Z,93.70
2018-09-18T17:37:06.019Z,93.90
2018-09-18T17:39:34.134Z,93.70
2018-09-18T17:42:02.251Z,93.50
2018-09-18T17:44:30.366Z,93.80
2018-09-18T17:46:58.486Z,93.90
2018-09-18T17:49:26.642Z,93.80
2018-09-18T17:51:54.898Z,94.00
2018-09-18T17:54:23.053Z,93.90
2018-09-18T17:56:51.263Z,93.80
2018-09-18T17:59:19.416Z,93.90
2018-09-18T18:01:47.513Z,94.00
2018-09-18T18:04:15.622Z,94.10
2018-09-18T18:06:43.775Z,94.30
2018-09-18T18:09:11.930Z,94.10
2018-09-18T18:11:40.384Z,94.60
2018-09-18T18:14:08.438Z,94.30
2018-09-18T18:16:36.583Z,94.30
2018-09-18T18:19:04.708Z,94.40
2018-09-18T18:21:32.816Z,94.30
2018-09-18T18:24:00.930Z,94.30
2018-09-18T18:26:29.155Z,94.40
2018-09-18T18:28:57.178Z,94.60
2018-09-18T18:31:25.299Z,94.50
2018-09-18T18:33:53.415Z,94.60
2018-09-18T18:36:21.632Z,94.70
2018-09-18T18:38:49.798Z,95.10
2018-09-18T18:41:17.922Z,94.80
2018-09-18T18:43:46.025Z,94.90
2018-09-18T18:46:14.175Z,94.90
2018-09-18T18:48:42.292Z,94.90
2018-09-18T18:51:10.494Z,94.90
2018-09-18T18:53:38.594Z,95.10
2018-09-18T18:56:06.710Z,95.10
2018-09-18T18:58:34.821Z,95.20
2018-09-18T19:01:02.982Z,95.30
2018-09-18T19:03:31.146Z,95.40
2018-09-18T19:05:59.303Z,95.50
2018-09-18T19:08:27.459Z,95.60
2018-09-18T19:10:55.670Z,95.80
2018-09-18T19:13:23.821Z,95.70
2018-09-18T19:15:51.982Z,96.00
2018-09-18T19:18:20.145Z,95.80
2018-09-18T19:20:48.306Z,95.90
2018-09-18T19:23:16.505Z,95.90
2018-09-18T19:25:44.704Z,96.10
2018-09-18T19:28:12.814Z,95.80
2018-09-18T19:30:41.009Z,96.20
2018-09-18T19:33:09.270Z,96.50
2018-09-18T19:35:37.354Z,96.30
2018-09-18T19:38:05.531Z,96.30
2018-09-18T19:40:33.674Z,96.30
2018-09-18T19:43:01.863Z,96.40
2018-09-18T19:45:30.002Z,96.50
2018-09-18T19:47:58.279Z,97.50
2018-09-18T19:50:26.463Z,97.00
2018-09-18T19:52:54.603Z,97.30
2018-09-18T19:55:22.743Z,97.40
2018-09-18T19:57:50.930Z,97.40
2018-09-18T20:00:19.094Z,97.60
2018-09-18T20:02:47.217Z,97.90
2018-09-18T20:05:15.341Z,98.00
2018-09-18T20:07:43.461Z,98.30
2018-09-18T20:10:11.566Z,98.60
2018-09-18T20:12:39.739Z,98.20
2018-09-18T20:15:07.812Z,98.80
2018-09-18T20:17:35.924Z,99.10
2018-09-18T20:20:04.032Z,99.10
2018-09-18T20:22:32.356Z,99.20
2018-09-18T20:25:00.459Z,99.60
2018-09-18T20:27:28.591Z,99.30
2018-09-18T20:29:56.728Z,99.80
2018-09-18T20:32:24.883Z,99.90
2018-09-18T20:34:52.998Z,99.70
2018-09-18T20:37:21.102Z,99.90
2018-09-18T20:39:49.336Z,99.90
2018-09-18T20:42:17.404Z,99.90
2018-09-18T20:44:45.561Z,99.90
2018-09-18T20:47:13.679Z,99.90
2018-09-18T20:49:41.807Z,99.90
2018-09-18T20:52:09.907Z,99.90
2018-09-18T20:54:38.157Z,99.90
2018-09-18T20:57:06.334Z,99.90
2018-09-18T20:59:34.442Z,99.90
2018-09-18T21:02:02.630Z,99.90
2018-09-18T21:04:30.771Z,99.90
2018-09-18T21:06:58.906Z,99.90
2018-09-18T21:09:27.067Z,99.90
2018-09-18T21:11:55.270Z,99.90
2018-09-18T21:14:23.481Z,99.90
2018-09-18T21:16:51.622Z,99.90
2018-09-18T21:19:19.765Z,99.90
2018-09-18T21:21:47.910Z,99.90
2018-09-18T21:24:16.085Z,99.90
2018-09-18T21:26:44.290Z,99.90
2018-09-18T21:29:12.436Z,99.90
2018-09-18T21:31:40.583Z,99.90
2018-09-18T21:34:08.751Z,99.90
2018-09-18T21:36:36.890Z,99.90
2018-09-18T21:39:07.772Z,99.90
2018-09-18T21:41:35.903Z,99.90
2018-09-18T21:44:04.058Z,99.90
2018-09-18T21:46:32.211Z,99.90
2018-09-18T21:49:00.419Z,99.90
2018-09-18T21:51:28.581Z,99.90
2018-09-18T21:53:56.730Z,99.90
2018-09-18T21:56:24.875Z,99.90
2018-09-18T21:58:53.014Z,99.90
2018-09-18T22:01:21.190Z,99.90
2018-09-18T22:03:49.330Z,99.90
2018-09-18T22:06:17.443Z,99.90
2018-09-18T22:08:45.554Z,99.90
2018-09-18T22:11:13.686Z,99.90
2018-09-18T22:13:41.789Z,99.90
2018-09-18T22:16:09.907Z,99.90
2018-09-18T22:18:38.057Z,99.90
2018-09-18T22:21:06.230Z,99.90
2018-09-18T22:23:34.349Z,99.90
2018-09-18T22:26:02.473Z,99.90
2018-09-18T22:28:30.581Z,99.90
2018-09-18T22:30:58.693Z,99.90
2018-09-18T22:33:26.834Z,99.90
2018-09-18T22:35:54.950Z,99.90
2018-09-18T22:38:23.071Z,99.90
2018-09-18T22:40:51.178Z,99.90
2018-09-18T22:43:19.377Z,99.90
2018-09-18T22:45:47.440Z,99.90
2018-09-18T22:48:15.568Z,99.90
2018-09-18T22:50:43.767Z,99.90
2018-09-18T22:53:11.886Z,99.90
2018-09-18T22:55:40.016Z,99.90
2018-09-18T22:58:08.125Z,99.90
2018-09-18T23:00:36.229Z,99.90
2018-09-18T23:03:04.420Z,99.90
2018-09-18T23:05:32.563Z,99.90
2018-09-18T23:08:00.702Z,99.90
2018-09-18T23:10:28.847Z,99.90
2018-09-18T23:12:57.007Z,99.90
2018-09-18T23:15:25.158Z,99.90
2018-09-18T23:17:53.346Z,99.90
2018-09-18T23:20:21.493Z,99.90
2018-09-18T23:22:49.659Z,99.90
2018-09-18T23:25:17.833Z,99.90
2018-09-18T23:27:45.985Z,99.90
2018-09-18T23:30:14.120Z,99.90
2018-09-18T23:32:42.274Z,99.90
2018-09-18T23:35:10.448Z,99.90
2018-09-18T23:37:38.610Z,99.90
2018-09-18T23:40:06.758Z,99.90
2018-09-18T23:42:34.906Z,99.90
2018-09-18T23:45:03.070Z,99.90
2018-09-18T23:47:31.218Z,99.90
2018-09-18T23:49:59.365Z,99.90
2018-09-18T23:52:27.516Z,99.90
2018-09-18T23:54:55.674Z,99.90
2018-09-18T23:57:23.861Z,99.90
2018-09-18T23:59:52.033Z,99.90
